createdAt,value
2019-03-28T00:02:05.330Z,48.33
2019-03-28T00:04:35.751Z,48.20
2019-03-28T00:07:06.085Z,48.74
2019-03-28T00:09:36.270Z,48.76
2019-03-28T00:12:06.572Z,48.90
2019-03-28T00:14:36.939Z,49.56
2019-03-28T00:17:07.307Z,49.17
2019-03-28T00:19:37.780Z,49.24
2019-03-28T00:22:08.082Z,49.12
2019-03-28T00:24:43.894Z,48.63
2019-03-28T00:27:14.046Z,49.33
2019-03-28T00:29:44.163Z,49.49
2019-03-28T00:32:14.257Z,49.72
2019-03-28T00:34:44.426Z,49.43
2019-03-28T00:37:14.516Z,49.93
2019-03-28T00:39:44.548Z,49.77
2019-03-28T00:42:23.205Z,50.23
2019-03-28T00:44:53.423Z,50.56
2019-03-28T00:47:23.440Z,50.30
2019-03-28T00:49:53.664Z,50.83
2019-03-28T00:52:23.773Z,50.09
2019-03-28T00:54:54.007Z,51.08
2019-03-28T00:57:25.542Z,51.12
2019-03-28T00:59:55.680Z,49.94
2019-03-28T01:02:26.149Z,50.64
2019-03-28T01:04:56.551Z,50.45
2019-03-28T01:07:26.893Z,50.26
2019-03-28T01:09:57.262Z,50.29
2019-03-28T01:12:27.662Z,49.21
2019-03-28T01:14:58.158Z,49.61
2019-03-28T01:17:28.561Z,49.68
2019-03-28T01:19:58.912Z,49.64
2019-03-28T01:22:29.291Z,50.39
2019-03-28T01:24:59.695Z,50.06
2019-03-28T01:27:30.164Z,50.10
2019-03-28T01:30:00.488Z,49.48
2019-03-28T01:32:30.965Z,49.88
2019-03-28T01:35:01.191Z,51.37
2019-03-28T01:37:31.205Z,49.08
2019-03-28T01:40:01.392Z,50.03
2019-03-28T01:42:32.734Z,49.45
2019-03-28T01:45:03.266Z,49.36
2019-03-28T01:47:33.312Z,49.55
2019-03-28T01:50:03.590Z,50.01
2019-03-28T01:52:34.004Z,49.97
2019-03-28T01:55:04.348Z,49.98
2019-03-28T01:57:34.480Z,50.96
2019-03-28T02:00:05.074Z,50.99
2019-03-28T02:02:35.445Z,51.88
2019-03-28T02:05:06.093Z,52.75
2019-03-28T02:07:36.373Z,53.24
2019-03-28T02:10:06.888Z,53.74
2019-03-28T02:12:37.320Z,54.38
2019-03-28T02:15:08.616Z,54.62
2019-03-28T02:17:38.900Z,54.35
2019-03-28T02:20:10.416Z,54.04
2019-03-28T02:22:40.946Z,54.43
2019-03-28T02:25:12.762Z,55.05
2019-03-28T02:27:42.863Z,55.39
2019-03-28T02:30:13.250Z,55.61
2019-03-28T02:32:43.313Z,56.30
2019-03-28T02:35:13.574Z,56.33
2019-03-28T02:37:43.660Z,56.86
2019-03-28T02:40:13.967Z,56.80
2019-03-28T02:42:44.011Z,57.02
2019-03-28T02:45:14.157Z,57.49
2019-03-28T02:47:44.193Z,57.34
2019-03-28T02:50:14.300Z,57.32
2019-03-28T02:52:45.309Z,57.15
2019-03-28T02:55:15.324Z,56.93
2019-03-28T02:57:45.335Z,56.60
2019-03-28T03:00:15.494Z,57.28
2019-03-28T03:02:45.565Z,57.03
2019-03-28T03:05:15.697Z,57.31
2019-03-28T03:07:45.816Z,57.43
2019-03-28T03:10:15.968Z,57.49
2019-03-28T03:12:46.095Z,57.15
2019-03-28T03:15:16.308Z,58.07
2019-03-28T03:17:46.312Z,58.32
2019-03-28T03:20:17.501Z,58.81
2019-03-28T03:22:47.737Z,58.90
2019-03-28T03:25:18.170Z,59.61
2019-03-28T03:27:57.758Z,59.26
2019-03-28T03:30:20.458Z,59.24
2019-03-28T03:32:50.860Z,59.16
2019-03-28T03:35:21.125Z,59.41
2019-03-28T03:37:51.371Z,59.32
2019-03-28T03:40:21.484Z,59.96
2019-03-28T03:42:51.721Z,59.29
2019-03-28T03:45:21.776Z,59.79
2019-03-28T03:47:52.021Z,59.06
2019-03-28T03:50:26.731Z,59.33
2019-03-28T03:52:56.742Z,60.39
2019-03-28T03:55:27.198Z,60.03
2019-03-28T03:58:13.796Z,60.08
2019-03-28T04:00:33.295Z,59.69
2019-03-28T04:03:03.548Z,60.74
2019-03-28T04:05:33.855Z,60.08
2019-03-28T04:08:04.403Z,59.96
2019-03-28T04:10:34.625Z,60.43
2019-03-28T04:13:05.980Z,59.78
2019-03-28T04:15:37.902Z,59.89
2019-03-28T04:18:08.462Z,60.26
2019-03-28T04:20:39.078Z,60.99
2019-03-28T04:23:09.392Z,59.84
2019-03-28T04:25:39.972Z,59.24
2019-03-28T04:28:10.273Z,59.75
2019-03-28T04:30:40.557Z,59.42
2019-03-28T04:33:11.046Z,58.88
2019-03-28T04:35:41.329Z,58.27
2019-03-28T04:38:11.530Z,57.70
2019-03-28T04:40:41.977Z,58.23
2019-03-28T04:43:12.252Z,57.18
2019-03-28T04:45:42.544Z,56.45
2019-03-28T04:48:12.764Z,56.22
2019-03-28T04:50:43.234Z,56.16
2019-03-28T04:53:13.497Z,56.25
2019-03-28T04:55:43.904Z,55.88
2019-03-28T04:58:14.274Z,57.28
2019-03-28T05:00:44.564Z,56.91
2019-03-28T05:03:14.583Z,56.83
2019-03-28T05:05:44.812Z,57.18
2019-03-28T05:08:14.970Z,58.26
2019-03-28T05:10:45.250Z,58.12
2019-03-28T05:13:15.614Z,58.43
2019-03-28T05:15:45.806Z,57.92
2019-03-28T05:18:16.267Z,57.71
2019-03-28T05:20:46.629Z,56.76
2019-03-28T05:23:16.925Z,56.79
2019-03-28T05:25:47.190Z,56.74
2019-03-28T05:28:17.528Z,56.69
2019-03-28T05:30:47.753Z,57.46
2019-03-28T05:33:18.015Z,57.58
2019-03-28T05:35:48.301Z,57.74
2019-03-28T05:38:18.620Z,57.99
2019-03-28T05:40:49.036Z,57.87
2019-03-28T05:43:19.052Z,58.07
2019-03-28T05:45:49.087Z,58.56
2019-03-28T05:48:19.609Z,58.94
2019-03-28T05:50:50.236Z,58.98
2019-03-28T05:53:20.589Z,58.84
2019-03-28T05:55:50.893Z,59.48
2019-03-28T05:58:21.314Z,60.55
2019-03-28T06:00:51.670Z,60.00
2019-03-28T06:03:22.059Z,60.49
2019-03-28T06:05:52.452Z,60.91
2019-03-28T06:08:22.771Z,61.47
2019-03-28T06:10:53.066Z,62.03
2019-03-28T06:13:23.482Z,63.14
2019-03-28T06:15:53.895Z,64.11
2019-03-28T06:18:23.965Z,65.70
2019-03-28T06:20:54.305Z,67.18
2019-03-28T06:23:24.403Z,67.67
2019-03-28T06:25:54.676Z,68.89
2019-03-28T06:28:25.424Z,69.13
2019-03-28T06:30:56.119Z,69.20
2019-03-28T06:33:26.511Z,68.89
2019-03-28T06:35:56.837Z,68.44
2019-03-28T06:38:27.252Z,67.89
2019-03-28T06:40:57.663Z,67.23
2019-03-28T06:43:27.898Z,67.37
2019-03-28T06:45:58.279Z,67.01
2019-03-28T06:48:28.680Z,65.99
2019-03-28T06:50:59.242Z,65.85
2019-03-28T06:53:30.457Z,66.25
2019-03-28T06:56:02.041Z,66.18
2019-03-28T06:58:32.502Z,65.89
2019-03-28T07:01:03.015Z,64.98
2019-03-28T07:03:33.434Z,64.92
2019-03-28T07:06:03.844Z,64.78
2019-03-28T07:08:34.288Z,65.02
2019-03-28T07:11:04.912Z,65.55
2019-03-28T07:13:35.201Z,66.00
2019-03-28T07:16:05.753Z,65.84
2019-03-28T07:18:36.006Z,65.74
2019-03-28T07:21:07.350Z,64.92
2019-03-28T07:23:37.817Z,63.99
2019-03-28T07:26:08.169Z,63.78
2019-03-28T07:28:38.557Z,62.68
2019-03-28T07:31:08.938Z,61.08
2019-03-28T07:33:39.405Z,60.90
2019-03-28T07:36:09.808Z,60.30
2019-03-28T07:38:40.277Z,58.51
2019-03-28T07:41:10.474Z,56.67
2019-03-28T07:43:40.901Z,56.32
2019-03-28T07:46:11.316Z,56.26
2019-03-28T07:48:41.943Z,56.07
2019-03-28T07:51:12.183Z,54.82
2019-03-28T07:53:42.645Z,54.55
2019-03-28T07:56:13.003Z,53.77
2019-03-28T07:58:44.271Z,53.39
2019-03-28T08:01:17.821Z,53.33
2019-03-28T08:03:46.633Z,52.99
2019-03-28T08:06:17.161Z,54.26
2019-03-28T08:08:47.471Z,53.46
2019-03-28T08:11:17.853Z,52.55
2019-03-28T08:13:48.309Z,51.11
2019-03-28T08:16:18.395Z,50.15
2019-03-28T08:18:48.739Z,50.82
2019-03-28T08:21:18.870Z,50.39
2019-03-28T08:23:49.403Z,49.70
2019-03-28T08:26:20.120Z,49.03
2019-03-28T08:28:50.792Z,47.73
2019-03-28T08:31:21.027Z,48.24
2019-03-28T08:33:51.223Z,48.37
2019-03-28T08:36:21.970Z,48.28
2019-03-28T08:38:52.605Z,47.59
2019-03-28T08:41:22.950Z,47.60
2019-03-28T08:43:53.177Z,47.40
2019-03-28T08:46:23.515Z,46.75
2019-03-28T08:48:53.707Z,47.01
2019-03-28T08:51:27.114Z,47.53
2019-03-28T08:53:56.145Z,48.30
2019-03-28T08:56:26.510Z,46.15
2019-03-28T08:58:57.159Z,45.68
2019-03-28T09:01:27.815Z,45.13
2019-03-28T09:03:58.260Z,44.74
2019-03-28T09:06:28.572Z,45.38
2019-03-28T09:08:58.955Z,45.15
2019-03-28T09:11:29.344Z,44.80
2019-03-28T09:14:00.635Z,46.23
2019-03-28T09:16:31.226Z,45.25
2019-03-28T09:19:01.303Z,45.96
2019-03-28T09:21:31.594Z,45.95
2019-03-28T09:24:01.888Z,46.25
2019-03-28T09:26:32.155Z,45.77
2019-03-28T09:29:02.464Z,45.85
2019-03-28T09:31:32.961Z,44.88
2019-03-28T09:34:03.162Z,45.17
2019-03-28T09:36:33.627Z,45.98
2019-03-28T09:39:05.778Z,45.39
2019-03-28T09:41:36.437Z,45.71
2019-03-28T09:44:07.014Z,45.19
2019-03-28T09:46:37.450Z,44.83
2019-03-28T09:49:07.857Z,43.82
2019-03-28T09:51:38.227Z,43.19
2019-03-28T09:54:08.729Z,42.31
2019-03-28T09:56:39.094Z,42.46
2019-03-28T09:59:09.526Z,41.59
2019-03-28T10:01:39.852Z,42.22
2019-03-28T10:04:10.406Z,39.71
2019-03-28T10:06:40.763Z,40.44
2019-03-28T10:09:11.324Z,40.84
2019-03-28T10:11:41.809Z,40.44
2019-03-28T10:14:12.029Z,40.57
2019-03-28T10:16:42.698Z,40.23
2019-03-28T10:19:12.968Z,40.63
2019-03-28T10:21:43.476Z,39.92
2019-03-28T10:24:13.862Z,39.97
2019-03-28T10:26:44.079Z,38.21
2019-03-28T10:29:14.394Z,37.32
2019-03-28T10:31:44.868Z,38.09
2019-03-28T10:34:15.101Z,38.90
2019-03-28T10:36:45.689Z,38.47
2019-03-28T10:39:16.415Z,38.22
2019-03-28T10:41:46.723Z,38.65
2019-03-28T10:44:17.170Z,38.65
2019-03-28T10:46:49.367Z,36.53
2019-03-28T10:49:21.366Z,36.53
2019-03-28T10:51:53.247Z,36.32
2019-03-28T10:54:25.983Z,35.67
2019-03-28T10:56:58.181Z,37.04
2019-03-28T10:59:30.011Z,37.82
2019-03-28T11:02:01.589Z,37.29
2019-03-28T11:04:33.361Z,37.38
2019-03-28T11:07:05.358Z,37.33
2019-03-28T11:09:37.319Z,37.08
2019-03-28T11:12:09.166Z,35.17
2019-03-28T11:14:40.914Z,35.41
2019-03-28T11:17:12.518Z,34.98
2019-03-28T11:19:44.440Z,35.00
2019-03-28T11:22:16.358Z,35.44
2019-03-28T11:24:48.155Z,35.90
2019-03-28T11:27:19.938Z,34.88
2019-03-28T11:29:51.857Z,33.71
2019-03-28T11:32:24.028Z,33.04
2019-03-28T11:34:56.037Z,33.00
2019-03-28T11:37:31.235Z,33.07
2019-03-28T11:40:03.061Z,33.64
2019-03-28T11:42:34.818Z,33.19
2019-03-28T11:45:09.569Z,32.43
2019-03-28T11:47:42.164Z,32.63
2019-03-28T11:50:16.916Z,32.84
2019-03-28T11:52:47.793Z,33.46
2019-03-28T11:55:20.053Z,33.52
2019-03-28T11:57:52.148Z,32.90
2019-03-28T12:00:24.484Z,32.69
2019-03-28T12:02:56.522Z,33.44
2019-03-28T12:05:28.371Z,34.19
2019-03-28T12:08:00.125Z,34.89
2019-03-28T12:10:31.696Z,35.07
2019-03-28T12:13:03.798Z,35.36
2019-03-28T12:15:35.791Z,36.42
2019-03-28T12:18:07.811Z,36.38
2019-03-28T12:20:39.356Z,36.40
2019-03-28T12:23:11.043Z,36.29
2019-03-28T12:25:43.183Z,35.96
2019-03-28T12:28:15.016Z,35.92
2019-03-28T12:30:47.069Z,35.95
2019-03-28T12:33:19.398Z,36.47
2019-03-28T12:35:52.426Z,36.69
2019-03-28T12:38:24.365Z,36.84
2019-03-28T12:40:56.771Z,38.01
2019-03-28T12:43:28.929Z,38.01
2019-03-28T12:46:00.773Z,36.88
2019-03-28T12:48:32.965Z,36.59
2019-03-28T12:51:05.185Z,37.56
2019-03-28T12:53:37.245Z,36.98
2019-03-28T12:56:09.655Z,36.98
2019-03-28T12:58:41.623Z,37.61
2019-03-28T13:01:13.676Z,37.29
2019-03-28T13:03:46.600Z,37.25
2019-03-28T13:06:18.926Z,37.25
2019-03-28T13:08:51.166Z,36.33
2019-03-28T13:11:23.384Z,36.33
2019-03-28T13:13:55.630Z,36.57
2019-03-28T13:16:27.730Z,36.57
2019-03-28T13:19:00.758Z,36.51
2019-03-28T13:21:32.639Z,36.03
2019-03-28T13:24:07.694Z,33.89
2019-03-28T13:26:38.906Z,33.18
2019-03-28T13:29:11.127Z,32.66
2019-03-28T13:31:43.289Z,32.54
2019-03-28T13:34:14.870Z,33.02
2019-03-28T13:36:47.050Z,32.93
2019-03-28T13:39:19.105Z,32.73
2019-03-28T13:41:50.924Z,33.85
2019-03-28T13:44:23.030Z,33.85
2019-03-28T13:46:55.232Z,35.03
2019-03-28T13:49:27.361Z,35.03
2019-03-28T13:51:59.478Z,34.78
2019-03-28T13:54:31.566Z,34.78
2019-03-28T13:57:03.816Z,35.36
2019-03-28T13:59:36.058Z,35.48
2019-03-28T14:02:08.226Z,35.12
2019-03-28T14:04:40.039Z,35.34
2019-03-28T14:07:12.100Z,35.24
2019-03-28T14:09:47.853Z,35.45
2019-03-28T14:12:23.215Z,35.45
2019-03-28T14:14:53.893Z,35.11
2019-03-28T14:17:26.139Z,34.54
2019-03-28T14:19:58.593Z,34.52
2019-03-28T14:22:30.920Z,34.52
2019-03-28T14:25:03.236Z,34.75
2019-03-28T14:27:35.594Z,34.81
2019-03-28T14:30:09.871Z,34.96
2019-03-28T14:32:53.015Z,33.86
2019-03-28T14:35:17.143Z,34.19
2019-03-28T14:37:49.221Z,34.19
2019-03-28T14:40:21.497Z,34.07
2019-03-28T14:42:53.825Z,33.60
2019-03-28T14:45:25.932Z,34.40
2019-03-28T14:47:58.243Z,34.71
2019-03-28T14:50:40.997Z,34.45
2019-03-28T14:53:13.378Z,33.70
2019-03-28T14:55:45.981Z,33.61
2019-03-28T14:58:21.719Z,33.80
2019-03-28T15:00:53.694Z,33.18
2019-03-28T15:03:27.249Z,33.25
2019-03-28T15:06:00.966Z,33.03
2019-03-28T15:08:33.223Z,33.10
2019-03-28T15:11:05.342Z,32.94
2019-03-28T15:13:40.311Z,32.77
2019-03-28T15:16:11.434Z,32.37
2019-03-28T15:18:43.495Z,32.45
2019-03-28T15:21:16.841Z,32.63
2019-03-28T15:23:49.006Z,32.37
2019-03-28T15:26:21.149Z,32.37
2019-03-28T15:28:53.449Z,32.32
2019-03-28T15:31:25.665Z,32.23
2019-03-28T15:33:58.175Z,32.08
2019-03-28T15:36:30.384Z,32.08
2019-03-28T15:39:02.785Z,32.26
2019-03-28T15:41:35.720Z,32.27
2019-03-28T15:44:07.914Z,32.27
2019-03-28T15:46:39.972Z,32.69
2019-03-28T15:49:12.273Z,32.92
2019-03-28T15:51:44.488Z,33.40
2019-03-28T15:54:16.452Z,33.98
2019-03-28T15:56:48.423Z,34.07
2019-03-28T15:59:20.726Z,34.26
2019-03-28T16:01:53.601Z,34.50
2019-03-28T16:04:25.820Z,34.60
2019-03-28T16:06:58.011Z,34.55
2019-03-28T16:09:31.712Z,34.71
2019-03-28T16:12:03.486Z,35.00
2019-03-28T16:14:35.262Z,35.13
2019-03-28T16:17:07.451Z,35.31
2019-03-28T16:19:39.551Z,35.49
2019-03-28T16:22:11.792Z,35.46
2019-03-28T16:24:46.545Z,35.72
2019-03-28T16:27:17.928Z,35.24
2019-03-28T16:29:49.800Z,35.48
2019-03-28T16:32:21.588Z,35.47
2019-03-28T16:34:53.418Z,35.65
2019-03-28T16:37:25.350Z,35.51
2019-03-28T16:39:58.196Z,35.86
2019-03-28T16:42:30.337Z,36.21
2019-03-28T16:45:02.357Z,36.41
2019-03-28T16:47:34.494Z,36.70
2019-03-28T16:50:06.891Z,37.15
2019-03-28T16:52:39.942Z,37.30
2019-03-28T16:55:25.565Z,37.55
2019-03-28T16:57:46.118Z,38.02
2019-03-28T17:00:19.293Z,38.35
2019-03-28T17:02:51.457Z,38.58
2019-03-28T17:05:24.009Z,39.06
2019-03-28T17:07:56.524Z,39.50
2019-03-28T17:10:48.840Z,39.62
2019-03-28T17:13:21.028Z,39.78
2019-03-28T17:15:53.391Z,40.00
2019-03-28T17:18:25.269Z,40.00
2019-03-28T17:20:57.257Z,39.98
2019-03-28T17:23:29.108Z,40.03
2019-03-28T17:26:01.335Z,39.93
2019-03-28T17:28:33.375Z,40.23
2019-03-28T17:31:05.467Z,40.36
2019-03-28T17:33:37.484Z,40.38
2019-03-28T17:36:09.708Z,40.23
2019-03-28T17:38:41.856Z,40.09
2019-03-28T17:41:14.069Z,39.96
2019-03-28T17:43:46.036Z,39.91
2019-03-28T17:46:18.710Z,40.31
2019-03-28T17:48:50.534Z,40.63
2019-03-28T17:51:22.311Z,40.69
2019-03-28T17:53:56.137Z,40.73
2019-03-28T17:56:28.340Z,41.11
2019-03-28T17:59:01.283Z,41.45
2019-03-28T18:01:34.858Z,41.51
2019-03-28T18:04:06.887Z,41.54
2019-03-28T18:06:39.057Z,41.75
2019-03-28T18:09:11.861Z,41.94
2019-03-28T18:11:44.170Z,42.23
2019-03-28T18:14:15.965Z,42.18
2019-03-28T18:16:48.121Z,42.69
2019-03-28T18:19:20.032Z,42.82
2019-03-28T18:22:02.874Z,43.53
2019-03-28T18:24:26.196Z,43.37
2019-03-28T18:26:58.224Z,43.42
2019-03-28T18:29:30.397Z,43.56
2019-03-28T18:32:02.556Z,43.64
2019-03-28T18:34:35.543Z,44.05
2019-03-28T18:37:07.755Z,44.05
2019-03-28T18:39:39.894Z,43.93
2019-03-28T18:42:11.714Z,44.08
2019-03-28T18:44:43.560Z,44.19
2019-03-28T18:47:15.833Z,44.19
2019-03-28T18:49:47.686Z,43.87
2019-03-28T18:52:19.798Z,44.22
2019-03-28T18:54:51.865Z,44.31
2019-03-28T18:57:24.241Z,44.41
2019-03-28T18:59:56.180Z,44.16
2019-03-28T19:02:28.411Z,44.17
2019-03-28T19:05:01.596Z,44.08
2019-03-28T19:07:33.698Z,44.58
2019-03-28T19:10:06.289Z,44.63
2019-03-28T19:12:38.431Z,44.66
2019-03-28T19:15:11.390Z,44.62
2019-03-28T19:17:43.541Z,44.50
2019-03-28T19:20:15.932Z,44.50
2019-03-28T19:22:50.177Z,44.66
2019-03-28T19:25:21.888Z,44.85
2019-03-28T19:27:54.321Z,44.90
2019-03-28T19:30:33.751Z,44.96
2019-03-28T19:33:07.044Z,44.46
2019-03-28T19:35:41.119Z,44.92
2019-03-28T19:38:13.605Z,44.82
2019-03-28T19:40:45.760Z,44.95
2019-03-28T19:43:20.760Z,45.56
2019-03-28T19:45:51.808Z,44.60
2019-03-28T19:48:23.904Z,44.32
2019-03-28T19:50:55.800Z,44.41
2019-03-28T19:53:27.648Z,45.35
2019-03-28T19:55:59.741Z,45.23
2019-03-28T19:58:34.881Z,44.25
2019-03-28T20:01:05.782Z,44.95
2019-03-28T20:03:38.075Z,44.72
2019-03-28T20:06:21.664Z,44.36
2019-03-28T20:08:45.010Z,44.49
2019-03-28T20:11:17.261Z,45.48
2019-03-28T20:13:50.057Z,45.36
2019-03-28T20:16:22.267Z,45.12
2019-03-28T20:18:54.537Z,46.11
2019-03-28T20:21:26.767Z,46.30
2019-03-28T20:23:58.847Z,47.35
2019-03-28T20:26:30.881Z,46.68
2019-03-28T20:29:03.002Z,47.04
2019-03-28T20:31:35.181Z,47.21
2019-03-28T20:34:07.365Z,47.81
2019-03-28T20:36:43.734Z,48.75
2019-03-28T20:39:13.675Z,48.08
2019-03-28T20:41:45.623Z,48.60
2019-03-28T20:44:18.826Z,49.07
2019-03-28T20:46:51.087Z,48.85
2019-03-28T20:49:23.175Z,47.94
2019-03-28T20:51:55.337Z,48.49
2019-03-28T20:54:27.536Z,49.14
2019-03-28T20:56:59.620Z,48.96
2019-03-28T20:59:32.854Z,48.80
2019-03-28T21:02:05.112Z,49.23
2019-03-28T21:04:38.524Z,49.32
2019-03-28T21:07:10.618Z,49.57
2019-03-28T21:09:42.886Z,49.51
2019-03-28T21:12:15.075Z,49.66
2019-03-28T21:14:47.273Z,49.96
2019-03-28T21:17:19.296Z,49.73
2019-03-28T21:19:52.510Z,49.67
2019-03-28T21:22:24.708Z,50.18
2019-03-28T21:24:57.031Z,50.24
2019-03-28T21:27:29.834Z,50.62
2019-03-28T21:30:02.029Z,50.77
2019-03-28T21:32:34.233Z,51.01
2019-03-28T21:35:06.412Z,51.59
2019-03-28T21:37:38.417Z,51.94
2019-03-28T21:40:08.658Z,52.28
2019-03-28T21:42:39.052Z,52.01
2019-03-28T21:45:09.439Z,52.79
2019-03-28T21:47:39.676Z,52.90
2019-03-28T21:50:10.196Z,52.59
2019-03-28T21:52:40.954Z,53.16
2019-03-28T21:55:11.738Z,52.94
2019-03-28T21:57:42.618Z,53.35
2019-03-28T22:00:13.282Z,52.94
2019-03-28T22:02:43.326Z,54.14
2019-03-28T22:05:13.828Z,53.49
2019-03-28T22:07:44.282Z,53.35
2019-03-28T22:10:14.847Z,54.25
2019-03-28T22:12:45.036Z,54.33
2019-03-28T22:15:15.593Z,55.81
2019-03-28T22:17:45.801Z,54.33
2019-03-28T22:20:16.106Z,54.29
2019-03-28T22:22:46.441Z,54.89
2019-03-28T22:25:16.682Z,55.08
2019-03-28T22:27:47.520Z,54.58
2019-03-28T22:30:18.067Z,55.79
2019-03-28T22:32:48.273Z,55.46
2019-03-28T22:35:18.354Z,55.24
2019-03-28T22:37:48.586Z,54.19
2019-03-28T22:40:18.960Z,53.72
2019-03-28T22:42:49.039Z,54.38
2019-03-28T22:45:19.113Z,54.17
2019-03-28T22:47:49.338Z,55.17
2019-03-28T22:50:19.473Z,54.44
2019-03-28T22:52:49.576Z,55.03
2019-03-28T22:55:19.743Z,54.99
2019-03-28T22:57:49.890Z,54.90
2019-03-28T23:00:21.230Z,54.49
2019-03-28T23:02:52.939Z,54.93
2019-03-28T23:05:23.259Z,55.47
2019-03-28T23:07:53.538Z,55.47
2019-03-28T23:10:23.837Z,55.38
2019-03-28T23:12:54.109Z,55.85
2019-03-28T23:15:24.212Z,55.89
2019-03-28T23:17:54.651Z,56.04
2019-03-28T23:20:25.186Z,55.97
2019-03-28T23:22:55.551Z,56.56
2019-03-28T23:25:25.865Z,57.43
2019-03-28T23:27:56.263Z,56.99
2019-03-28T23:30:26.284Z,57.37
2019-03-28T23:32:56.385Z,56.84
2019-03-28T23:35:26.669Z,57.21
2019-03-28T23:37:57.076Z,56.86
2019-03-28T23:40:27.410Z,57.07
2019-03-28T23:42:58.088Z,57.92
2019-03-28T23:45:28.279Z,57.56
2019-03-28T23:47:58.587Z,56.90
2019-03-28T23:50:28.812Z,56.75
2019-03-28T23:52:58.920Z,57.02
2019-03-28T23:55:29.191Z,57.08
2019-03-28T23:57:59.360Z,57.36
